sensor_id;sensor_type;location;lat;lon;timestamp;P1;durP1;ratioP1;P2;durP2;ratioP2
46589;SDS011;32313;48.722;9.362;2022-11-24T00:01:00;18.03;;;10.27;;
46589;SDS011;32313;48.722;9.362;2022-11-24T00:03:30;14.50;;;10.17;;
46589;SDS011;32313;48.722;9.362;2022-11-24T00:05:56;12.67;;;10.33;;
46589;SDS011;32313;48.722;9.362;2022-11-24T00:08:26;13.87;;;10.83;;
46589;SDS011;32313;48.722;9.362;2022-11-24T00:10:52;16.63;;;10.53;;
46589;SDS011;32313;48.722;9.362;2022-11-24T00:13:17;12.80;;;10.30;;
46589;SDS011;32313;48.722;9.362;2022-11-24T00:15:43;14.90;;;9.50;;
46589;SDS011;32313;48.722;9.362;2022-11-24T00:18:08;16.13;;;10.43;;
46589;SDS011;32313;48.722;9.362;2022-11-24T00:20:34;17.63;;;10.77;;
46589;SDS011;32313;48.722;9.362;2022-11-24T00:23:00;15.50;;;11.77;;
46589;SDS011;32313;48.722;9.362;2022-11-24T00:25:25;22.50;;;16.13;;
46589;SDS011;32313;48.722;9.362;2022-11-24T00:27:51;23.33;;;15.07;;
46589;SDS011;32313;48.722;9.362;2022-11-24T00:30:16;20.87;;;14.60;;
46589;SDS011;32313;48.722;9.362;2022-11-24T00:32:42;25.30;;;16.47;;
46589;SDS011;32313;48.722;9.362;2022-11-24T00:35:08;25.87;;;16.10;;
46589;SDS011;32313;48.722;9.362;2022-11-24T00:37:34;22.60;;;16.00;;
46589;SDS011;32313;48.722;9.362;2022-11-24T00:39:59;20.33;;;14.37;;
46589;SDS011;32313;48.722;9.362;2022-11-24T00:42:25;28.17;;;15.30;;
46589;SDS011;32313;48.722;9.362;2022-11-24T00:44:50;20.40;;;15.00;;
46589;SDS011;32313;48.722;9.362;2022-11-24T00:47:16;20.23;;;13.83;;
46589;SDS011;32313;48.722;9.362;2022-11-24T00:49:42;16.80;;;14.10;;
46589;SDS011;32313;48.722;9.362;2022-11-24T00:52:07;17.33;;;12.70;;
46589;SDS011;32313;48.722;9.362;2022-11-24T00:54:33;17.23;;;13.40;;
46589;SDS011;32313;48.722;9.362;2022-11-24T00:56:59;17.27;;;12.27;;
46589;SDS011;32313;48.722;9.362;2022-11-24T00:59:24;19.27;;;14.10;;
46589;SDS011;32313;48.722;9.362;2022-11-24T01:01:50;17.20;;;13.80;;
46589;SDS011;32313;48.722;9.362;2022-11-24T01:04:15;15.97;;;11.53;;
46589;SDS011;32313;48.722;9.362;2022-11-24T01:06:42;18.30;;;12.47;;
46589;SDS011;32313;48.722;9.362;2022-11-24T01:09:08;17.37;;;11.23;;
46589;SDS011;32313;48.722;9.362;2022-11-24T01:11:35;14.17;;;11.00;;
46589;SDS011;32313;48.722;9.362;2022-11-24T01:14:20;12.10;;;10.30;;
46589;SDS011;32313;48.722;9.362;2022-11-24T01:16:48;16.47;;;9.80;;
46589;SDS011;32313;48.722;9.362;2022-11-24T01:19:14;12.07;;;10.10;;
46589;SDS011;32313;48.722;9.362;2022-11-24T01:21:39;10.33;;;9.33;;
46589;SDS011;32313;48.722;9.362;2022-11-24T01:24:05;12.57;;;8.67;;
46589;SDS011;32313;48.722;9.362;2022-11-24T01:26:31;15.77;;;8.90;;
46589;SDS011;32313;48.722;9.362;2022-11-24T01:28:57;17.33;;;9.00;;
46589;SDS011;32313;48.722;9.362;2022-11-24T01:31:23;13.70;;;8.33;;
46589;SDS011;32313;48.722;9.362;2022-11-24T01:33:51;12.27;;;8.60;;
46589;SDS011;32313;48.722;9.362;2022-11-24T01:36:17;15.57;;;9.93;;
46589;SDS011;32313;48.722;9.362;2022-11-24T01:38:43;17.27;;;9.83;;
46589;SDS011;32313;48.722;9.362;2022-11-24T01:41:13;13.77;;;10.03;;
46589;SDS011;32313;48.722;9.362;2022-11-24T01:43:41;16.03;;;9.00;;
46589;SDS011;32313;48.722;9.362;2022-11-24T01:51:38;19.57;;;9.23;;
46589;SDS011;32313;48.722;9.362;2022-11-24T01:54:27;11.60;;;9.40;;
46589;SDS011;32313;48.722;9.362;2022-11-24T01:56:57;16.53;;;10.87;;
46589;SDS011;32313;48.722;9.362;2022-11-24T01:59:26;24.30;;;12.67;;
46589;SDS011;32313;48.722;9.362;2022-11-24T02:01:52;21.70;;;12.77;;
46589;SDS011;32313;48.722;9.362;2022-11-24T02:04:21;25.87;;;15.00;;
46589;SDS011;32313;48.722;9.362;2022-11-24T02:06:50;23.67;;;12.43;;
46589;SDS011;32313;48.722;9.362;2022-11-24T02:11:48;23.27;;;11.43;;
46589;SDS011;32313;48.722;9.362;2022-11-24T02:14:14;12.23;;;10.67;;
46589;SDS011;32313;48.722;9.362;2022-11-24T02:16:43;21.90;;;11.90;;
46589;SDS011;32313;48.722;9.362;2022-11-24T02:19:32;22.90;;;12.83;;
46589;SDS011;32313;48.722;9.362;2022-11-24T02:22:04;20.07;;;11.57;;
46589;SDS011;32313;48.722;9.362;2022-11-24T02:27:08;16.07;;;11.77;;
46589;SDS011;32313;48.722;9.362;2022-11-24T02:29:34;14.20;;;10.73;;
46589;SDS011;32313;48.722;9.362;2022-11-24T02:32:00;18.67;;;10.17;;
46589;SDS011;32313;48.722;9.362;2022-11-24T02:34:30;19.70;;;10.43;;
46589;SDS011;32313;48.722;9.362;2022-11-24T02:36:56;14.07;;;9.90;;
46589;SDS011;32313;48.722;9.362;2022-11-24T02:39:22;17.07;;;10.10;;
46589;SDS011;32313;48.722;9.362;2022-11-24T02:41:52;17.60;;;11.03;;
46589;SDS011;32313;48.722;9.362;2022-11-24T02:44:23;14.57;;;9.90;;
46589;SDS011;32313;48.722;9.362;2022-11-24T02:47:02;11.50;;;8.43;;
46589;SDS011;32313;48.722;9.362;2022-11-24T02:49:36;14.90;;;8.93;;
46589;SDS011;32313;48.722;9.362;2022-11-24T02:52:03;10.30;;;8.67;;
46589;SDS011;32313;48.722;9.362;2022-11-24T02:54:30;15.20;;;8.50;;
46589;SDS011;32313;48.722;9.362;2022-11-24T02:56:55;12.60;;;8.10;;
46589;SDS011;32313;48.722;9.362;2022-11-24T02:59:21;13.00;;;8.17;;
46589;SDS011;32313;48.722;9.362;2022-11-24T03:01:47;11.03;;;7.23;;
46589;SDS011;32313;48.722;9.362;2022-11-24T03:04:13;12.43;;;8.10;;
46589;SDS011;32313;48.722;9.362;2022-11-24T03:06:38;12.00;;;8.37;;
46589;SDS011;32313;48.722;9.362;2022-11-24T03:09:05;11.97;;;7.90;;
46589;SDS011;32313;48.722;9.362;2022-11-24T03:11:31;13.17;;;8.47;;
46589;SDS011;32313;48.722;9.362;2022-11-24T03:13:57;12.77;;;7.97;;
46589;SDS011;32313;48.722;9.362;2022-11-24T03:16:22;9.97;;;8.40;;
46589;SDS011;32313;48.722;9.362;2022-11-24T03:18:51;10.93;;;8.40;;
46589;SDS011;32313;48.722;9.362;2022-11-24T03:21:17;11.33;;;8.37;;
46589;SDS011;32313;48.722;9.362;2022-11-24T03:23:52;14.13;;;9.10;;
46589;SDS011;32313;48.722;9.362;2022-11-24T03:26:19;14.63;;;9.03;;
46589;SDS011;32313;48.722;9.362;2022-11-24T03:28:46;10.93;;;8.87;;
46589;SDS011;32313;48.722;9.362;2022-11-24T03:31:12;13.97;;;8.83;;
46589;SDS011;32313;48.722;9.362;2022-11-24T03:33:38;12.77;;;10.50;;
46589;SDS011;32313;48.722;9.362;2022-11-24T03:36:04;20.60;;;9.97;;
46589;SDS011;32313;48.722;9.362;2022-11-24T03:38:31;13.30;;;10.80;;
46589;SDS011;32313;48.722;9.362;2022-11-24T03:40:56;15.83;;;9.77;;
46589;SDS011;32313;48.722;9.362;2022-11-24T03:43:22;13.07;;;10.50;;
46589;SDS011;32313;48.722;9.362;2022-11-24T03:45:48;13.00;;;9.63;;
46589;SDS011;32313;48.722;9.362;2022-11-24T03:48:14;13.03;;;10.40;;
46589;SDS011;32313;48.722;9.362;2022-11-24T03:50:41;17.43;;;11.43;;
46589;SDS011;32313;48.722;9.362;2022-11-24T03:53:07;13.37;;;10.23;;
46589;SDS011;32313;48.722;9.362;2022-11-24T03:55:34;18.47;;;10.60;;
46589;SDS011;32313;48.722;9.362;2022-11-24T03:58:00;11.60;;;10.17;;
46589;SDS011;32313;48.722;9.362;2022-11-24T04:00:26;11.90;;;10.27;;
46589;SDS011;32313;48.722;9.362;2022-11-24T04:02:52;18.97;;;11.83;;
46589;SDS011;32313;48.722;9.362;2022-11-24T04:05:18;17.53;;;10.97;;
46589;SDS011;32313;48.722;9.362;2022-11-24T04:07:44;14.57;;;10.20;;
46589;SDS011;32313;48.722;9.362;2022-11-24T04:10:09;13.10;;;10.93;;
46589;SDS011;32313;48.722;9.362;2022-11-24T04:12:35;17.53;;;10.50;;
46589;SDS011;32313;48.722;9.362;2022-11-24T04:15:14;15.47;;;11.30;;
46589;SDS011;32313;48.722;9.362;2022-11-24T04:17:42;13.03;;;9.80;;
46589;SDS011;32313;48.722;9.362;2022-11-24T04:20:08;12.97;;;9.60;;
46589;SDS011;32313;48.722;9.362;2022-11-24T04:22:35;14.80;;;9.67;;
46589;SDS011;32313;48.722;9.362;2022-11-24T04:25:00;11.20;;;9.30;;
46589;SDS011;32313;48.722;9.362;2022-11-24T04:27:26;12.83;;;11.43;;
46589;SDS011;32313;48.722;9.362;2022-11-24T04:29:52;16.77;;;10.20;;
46589;SDS011;32313;48.722;9.362;2022-11-24T04:32:18;22.93;;;11.30;;
46589;SDS011;32313;48.722;9.362;2022-11-24T04:34:44;10.40;;;8.77;;
46589;SDS011;32313;48.722;9.362;2022-11-24T04:37:10;10.60;;;9.10;;
46589;SDS011;32313;48.722;9.362;2022-11-24T04:39:36;10.20;;;8.90;;
46589;SDS011;32313;48.722;9.362;2022-11-24T04:42:01;10.37;;;8.67;;
46589;SDS011;32313;48.722;9.362;2022-11-24T04:44:27;10.40;;;8.80;;
46589;SDS011;32313;48.722;9.362;2022-11-24T04:46:53;13.40;;;9.60;;
46589;SDS011;32313;48.722;9.362;2022-11-24T04:49:19;14.47;;;9.17;;
46589;SDS011;32313;48.722;9.362;2022-11-24T04:51:45;14.63;;;10.53;;
46589;SDS011;32313;48.722;9.362;2022-11-24T04:54:11;17.57;;;10.57;;
46589;SDS011;32313;48.722;9.362;2022-11-24T04:56:38;18.37;;;14.63;;
46589;SDS011;32313;48.722;9.362;2022-11-24T04:59:04;20.20;;;14.83;;
46589;SDS011;32313;48.722;9.362;2022-11-24T05:01:30;20.87;;;14.03;;
46589;SDS011;32313;48.722;9.362;2022-11-24T05:03:56;17.63;;;14.03;;
46589;SDS011;32313;48.722;9.362;2022-11-24T05:06:22;18.37;;;13.47;;
46589;SDS011;32313;48.722;9.362;2022-11-24T05:08:49;20.10;;;14.67;;
46589;SDS011;32313;48.722;9.362;2022-11-24T05:11:16;27.07;;;17.00;;
46589;SDS011;32313;48.722;9.362;2022-11-24T05:13:42;22.27;;;15.13;;
46589;SDS011;32313;48.722;9.362;2022-11-24T05:16:08;12.97;;;11.47;;
46589;SDS011;32313;48.722;9.362;2022-11-24T05:18:34;13.40;;;9.57;;
46589;SDS011;32313;48.722;9.362;2022-11-24T05:21:00;15.17;;;9.77;;
46589;SDS011;32313;48.722;9.362;2022-11-24T05:23:25;13.80;;;9.80;;
46589;SDS011;32313;48.722;9.362;2022-11-24T05:25:52;11.50;;;10.17;;
46589;SDS011;32313;48.722;9.362;2022-11-24T05:28:17;12.00;;;9.97;;
46589;SDS011;32313;48.722;9.362;2022-11-24T05:30:44;14.97;;;10.60;;
46589;SDS011;32313;48.722;9.362;2022-11-24T05:33:11;14.07;;;11.40;;
46589;SDS011;32313;48.722;9.362;2022-11-24T05:35:45;12.00;;;10.70;;
46589;SDS011;32313;48.722;9.362;2022-11-24T05:38:12;13.63;;;10.77;;
46589;SDS011;32313;48.722;9.362;2022-11-24T05:40:37;34.57;;;15.63;;
46589;SDS011;32313;48.722;9.362;2022-11-24T05:43:03;46.80;;;20.67;;
46589;SDS011;32313;48.722;9.362;2022-11-24T05:45:29;29.87;;;16.63;;
46589;SDS011;32313;48.722;9.362;2022-11-24T05:47:54;24.17;;;14.00;;
46589;SDS011;32313;48.722;9.362;2022-11-24T05:50:28;31.13;;;16.23;;
46589;SDS011;32313;48.722;9.362;2022-11-24T05:52:54;28.57;;;16.87;;
46589;SDS011;32313;48.722;9.362;2022-11-24T05:55:20;22.27;;;13.33;;
46589;SDS011;32313;48.722;9.362;2022-11-24T05:57:45;19.57;;;11.60;;
46589;SDS011;32313;48.722;9.362;2022-11-24T06:00:11;16.27;;;12.03;;
46589;SDS011;32313;48.722;9.362;2022-11-24T06:02:38;18.70;;;12.80;;
46589;SDS011;32313;48.722;9.362;2022-11-24T06:05:04;21.33;;;12.17;;
46589;SDS011;32313;48.722;9.362;2022-11-24T06:07:30;13.87;;;12.03;;
46589;SDS011;32313;48.722;9.362;2022-11-24T06:09:55;13.70;;;11.47;;
46589;SDS011;32313;48.722;9.362;2022-11-24T06:12:21;14.37;;;11.97;;
46589;SDS011;32313;48.722;9.362;2022-11-24T06:14:47;14.30;;;11.40;;
46589;SDS011;32313;48.722;9.362;2022-11-24T06:17:12;18.83;;;12.80;;
46589;SDS011;32313;48.722;9.362;2022-11-24T06:19:38;18.07;;;12.30;;
46589;SDS011;32313;48.722;9.362;2022-11-24T06:22:04;25.23;;;14.60;;
46589;SDS011;32313;48.722;9.362;2022-11-24T06:24:29;17.90;;;14.23;;
46589;SDS011;32313;48.722;9.362;2022-11-24T06:26:55;17.90;;;13.37;;
46589;SDS011;32313;48.722;9.362;2022-11-24T06:29:20;21.60;;;14.30;;
46589;SDS011;32313;48.722;9.362;2022-11-24T06:31:46;17.53;;;13.43;;
46589;SDS011;32313;48.722;9.362;2022-11-24T06:34:12;20.83;;;15.17;;
46589;SDS011;32313;48.722;9.362;2022-11-24T06:36:38;17.53;;;12.73;;
46589;SDS011;32313;48.722;9.362;2022-11-24T06:39:04;18.20;;;12.33;;
46589;SDS011;32313;48.722;9.362;2022-11-24T06:41:31;16.80;;;11.63;;
46589;SDS011;32313;48.722;9.362;2022-11-24T06:43:56;13.10;;;10.70;;
46589;SDS011;32313;48.722;9.362;2022-11-24T06:46:22;13.97;;;10.73;;
46589;SDS011;32313;48.722;9.362;2022-11-24T06:48:51;13.50;;;12.03;;
46589;SDS011;32313;48.722;9.362;2022-11-24T06:51:17;17.97;;;12.90;;
46589;SDS011;32313;48.722;9.362;2022-11-24T06:53:43;19.73;;;12.80;;
46589;SDS011;32313;48.722;9.362;2022-11-24T06:56:10;20.90;;;13.50;;
46589;SDS011;32313;48.722;9.362;2022-11-24T06:58:41;21.07;;;13.33;;
46589;SDS011;32313;48.722;9.362;2022-11-24T07:01:12;16.77;;;12.60;;
46589;SDS011;32313;48.722;9.362;2022-11-24T07:03:39;17.60;;;12.77;;
46589;SDS011;32313;48.722;9.362;2022-11-24T07:06:05;16.03;;;11.93;;
46589;SDS011;32313;48.722;9.362;2022-11-24T07:08:31;18.67;;;10.83;;
46589;SDS011;32313;48.722;9.362;2022-11-24T07:10:58;12.60;;;11.30;;
46589;SDS011;32313;48.722;9.362;2022-11-24T07:13:29;15.80;;;12.07;;
46589;SDS011;32313;48.722;9.362;2022-11-24T07:15:54;18.00;;;11.47;;
46589;SDS011;32313;48.722;9.362;2022-11-24T07:18:20;18.33;;;11.20;;
46589;SDS011;32313;48.722;9.362;2022-11-24T07:20:52;16.93;;;11.83;;
46589;SDS011;32313;48.722;9.362;2022-11-24T07:23:17;15.30;;;11.60;;
46589;SDS011;32313;48.722;9.362;2022-11-24T07:25:43;18.10;;;12.60;;
46589;SDS011;32313;48.722;9.362;2022-11-24T07:28:08;16.20;;;13.10;;
46589;SDS011;32313;48.722;9.362;2022-11-24T07:30:34;18.90;;;13.03;;
46589;SDS011;32313;48.722;9.362;2022-11-24T07:33:00;14.87;;;11.47;;
46589;SDS011;32313;48.722;9.362;2022-11-24T07:35:27;15.07;;;10.67;;
46589;SDS011;32313;48.722;9.362;2022-11-24T07:37:56;18.60;;;12.47;;
46589;SDS011;32313;48.722;9.362;2022-11-24T07:40:23;20.47;;;12.90;;
46589;SDS011;32313;48.722;9.362;2022-11-24T07:42:50;19.90;;;11.50;;
46589;SDS011;32313;48.722;9.362;2022-11-24T07:45:15;22.10;;;12.73;;
46589;SDS011;32313;48.722;9.362;2022-11-24T07:47:41;24.73;;;13.40;;
46589;SDS011;32313;48.722;9.362;2022-11-24T07:50:07;20.53;;;14.87;;
46589;SDS011;32313;48.722;9.362;2022-11-24T07:52:34;14.57;;;11.43;;
46589;SDS011;32313;48.722;9.362;2022-11-24T07:55:00;16.03;;;11.07;;
46589;SDS011;32313;48.722;9.362;2022-11-24T07:57:27;18.43;;;13.07;;
46589;SDS011;32313;48.722;9.362;2022-11-24T07:59:55;18.27;;;12.57;;
46589;SDS011;32313;48.722;9.362;2022-11-24T08:02:21;18.17;;;13.10;;
46589;SDS011;32313;48.722;9.362;2022-11-24T08:04:46;22.57;;;14.40;;
46589;SDS011;32313;48.722;9.362;2022-11-24T08:07:12;20.47;;;14.57;;
46589;SDS011;32313;48.722;9.362;2022-11-24T08:09:38;23.70;;;13.93;;
46589;SDS011;32313;48.722;9.362;2022-11-24T08:12:04;22.20;;;14.00;;
46589;SDS011;32313;48.722;9.362;2022-11-24T08:14:29;24.20;;;13.47;;
46589;SDS011;32313;48.722;9.362;2022-11-24T08:16:56;19.43;;;13.60;;
46589;SDS011;32313;48.722;9.362;2022-11-24T08:19:22;23.80;;;14.23;;
46589;SDS011;32313;48.722;9.362;2022-11-24T08:21:47;22.57;;;13.77;;
46589;SDS011;32313;48.722;9.362;2022-11-24T08:24:13;24.03;;;13.83;;
46589;SDS011;32313;48.722;9.362;2022-11-24T08:26:40;22.23;;;13.40;;
46589;SDS011;32313;48.722;9.362;2022-11-24T08:29:06;25.17;;;13.90;;
46589;SDS011;32313;48.722;9.362;2022-11-24T08:31:32;21.33;;;14.23;;
46589;SDS011;32313;48.722;9.362;2022-11-24T08:34:00;24.00;;;13.67;;
46589;SDS011;32313;48.722;9.362;2022-11-24T08:36:27;22.60;;;13.70;;
46589;SDS011;32313;48.722;9.362;2022-11-24T08:38:54;20.27;;;13.90;;
46589;SDS011;32313;48.722;9.362;2022-11-24T08:41:21;23.37;;;12.37;;
46589;SDS011;32313;48.722;9.362;2022-11-24T08:43:47;24.00;;;12.23;;
46589;SDS011;32313;48.722;9.362;2022-11-24T08:46:13;20.63;;;12.07;;
46589;SDS011;32313;48.722;9.362;2022-11-24T08:48:41;21.53;;;11.20;;
46589;SDS011;32313;48.722;9.362;2022-11-24T08:51:09;25.77;;;12.23;;
46589;SDS011;32313;48.722;9.362;2022-11-24T08:53:36;16.03;;;9.90;;
46589;SDS011;32313;48.722;9.362;2022-11-24T08:56:03;28.93;;;12.07;;
46589;SDS011;32313;48.722;9.362;2022-11-24T08:58:30;26.93;;;12.90;;
46589;SDS011;32313;48.722;9.362;2022-11-24T09:01:02;25.43;;;12.40;;
46589;SDS011;32313;48.722;9.362;2022-11-24T09:03:33;27.77;;;11.57;;
46589;SDS011;32313;48.722;9.362;2022-11-24T09:05:59;19.53;;;12.80;;
46589;SDS011;32313;48.722;9.362;2022-11-24T09:08:27;23.10;;;12.37;;
46589;SDS011;32313;48.722;9.362;2022-11-24T09:10:57;28.30;;;12.57;;
46589;SDS011;32313;48.722;9.362;2022-11-24T09:13:24;24.07;;;12.20;;
46589;SDS011;32313;48.722;9.362;2022-11-24T09:15:49;24.33;;;12.37;;
46589;SDS011;32313;48.722;9.362;2022-11-24T09:18:15;21.37;;;9.80;;
46589;SDS011;32313;48.722;9.362;2022-11-24T09:20:41;19.70;;;10.33;;
46589;SDS011;32313;48.722;9.362;2022-11-24T09:23:06;17.43;;;8.83;;
46589;SDS011;32313;48.722;9.362;2022-11-24T09:25:32;16.77;;;7.73;;
46589;SDS011;32313;48.722;9.362;2022-11-24T09:27:58;15.80;;;8.90;;
46589;SDS011;32313;48.722;9.362;2022-11-24T09:30:24;24.07;;;9.37;;
46589;SDS011;32313;48.722;9.362;2022-11-24T09:32:50;15.37;;;7.53;;
46589;SDS011;32313;48.722;9.362;2022-11-24T09:35:16;15.63;;;7.30;;
46589;SDS011;32313;48.722;9.362;2022-11-24T09:37:44;13.03;;;7.13;;
46589;SDS011;32313;48.722;9.362;2022-11-24T09:40:12;13.87;;;7.13;;
46589;SDS011;32313;48.722;9.362;2022-11-24T09:42:46;15.90;;;7.03;;
46589;SDS011;32313;48.722;9.362;2022-11-24T09:50:51;7.53;;;5.80;;
46589;SDS011;32313;48.722;9.362;2022-11-24T09:55:59;9.97;;;5.90;;
46589;SDS011;32313;48.722;9.362;2022-11-24T10:01:13;8.73;;;4.90;;
46589;SDS011;32313;48.722;9.362;2022-11-24T10:03:46;10.47;;;5.33;;
46589;SDS011;32313;48.722;9.362;2022-11-24T10:11:23;7.63;;;4.77;;
46589;SDS011;32313;48.722;9.362;2022-11-24T10:27:38;7.70;;;4.20;;
46589;SDS011;32313;48.722;9.362;2022-11-24T10:30:15;7.00;;;5.17;;
46589;SDS011;32313;48.722;9.362;2022-11-24T10:35:44;4.67;;;4.27;;
46589;SDS011;32313;48.722;9.362;2022-11-24T10:43:39;6.07;;;5.00;;
46589;SDS011;32313;48.722;9.362;2022-11-24T10:48:46;4.83;;;3.93;;
46589;SDS011;32313;48.722;9.362;2022-11-24T10:51:26;5.57;;;3.53;;
46589;SDS011;32313;48.722;9.362;2022-11-24T10:54:15;3.67;;;3.20;;
46589;SDS011;32313;48.722;9.362;2022-11-24T10:56:43;4.27;;;3.07;;
46589;SDS011;32313;48.722;9.362;2022-11-24T10:59:20;3.10;;;2.83;;
46589;SDS011;32313;48.722;9.362;2022-11-24T11:01:52;3.20;;;2.93;;
46589;SDS011;32313;48.722;9.362;2022-11-24T11:04:29;3.00;;;2.57;;
46589;SDS011;32313;48.722;9.362;2022-11-24T11:07:07;3.20;;;2.90;;
46589;SDS011;32313;48.722;9.362;2022-11-24T11:09:39;3.37;;;2.70;;
46589;SDS011;32313;48.722;9.362;2022-11-24T11:12:16;3.20;;;2.90;;
46589;SDS011;32313;48.722;9.362;2022-11-24T11:14:48;2.73;;;2.53;;
46589;SDS011;32313;48.722;9.362;2022-11-24T11:17:30;2.90;;;2.70;;
46589;SDS011;32313;48.722;9.362;2022-11-24T11:20:04;2.77;;;2.57;;
46589;SDS011;32313;48.722;9.362;2022-11-24T11:22:41;2.70;;;2.50;;
46589;SDS011;32313;48.722;9.362;2022-11-24T11:27:37;3.70;;;2.70;;
46589;SDS011;32313;48.722;9.362;2022-11-24T11:30:37;4.00;;;3.00;;
46589;SDS011;32313;48.722;9.362;2022-11-24T11:32:58;2.77;;;2.60;;
46589;SDS011;32313;48.722;9.362;2022-11-24T11:35:28;3.93;;;3.07;;
46589;SDS011;32313;48.722;9.362;2022-11-24T11:37:58;2.67;;;2.47;;
46589;SDS011;32313;48.722;9.362;2022-11-24T11:40:27;2.93;;;2.73;;
46589;SDS011;32313;48.722;9.362;2022-11-24T11:43:01;2.70;;;2.33;;
46589;SDS011;32313;48.722;9.362;2022-11-24T11:45:35;2.80;;;2.33;;
46589;SDS011;32313;48.722;9.362;2022-11-24T12:07:15;3.07;;;2.43;;
46589;SDS011;32313;48.722;9.362;2022-11-24T12:15:36;3.83;;;2.77;;
46589;SDS011;32313;48.722;9.362;2022-11-24T12:21:00;3.27;;;2.80;;
46589;SDS011;32313;48.722;9.362;2022-11-24T12:26:22;3.40;;;2.70;;
46589;SDS011;32313;48.722;9.362;2022-11-24T12:47:17;5.47;;;3.37;;
46589;SDS011;32313;48.722;9.362;2022-11-24T12:50:09;3.50;;;3.20;;
46589;SDS011;32313;48.722;9.362;2022-11-24T12:52:43;3.87;;;3.20;;
46589;SDS011;32313;48.722;9.362;2022-11-24T12:55:16;5.27;;;3.47;;
46589;SDS011;32313;48.722;9.362;2022-11-24T12:57:48;3.20;;;3.00;;
46589;SDS011;32313;48.722;9.362;2022-11-24T13:00:30;3.77;;;3.47;;
46589;SDS011;32313;48.722;9.362;2022-11-24T13:08:12;4.37;;;3.07;;
46589;SDS011;32313;48.722;9.362;2022-11-24T13:10:39;4.47;;;3.03;;
46589;SDS011;32313;48.722;9.362;2022-11-24T13:13:09;3.90;;;2.93;;
46589;SDS011;32313;48.722;9.362;2022-11-24T13:24:03;7.13;;;3.67;;
46589;SDS011;32313;48.722;9.362;2022-11-24T13:26:43;3.37;;;3.07;;
46589;SDS011;32313;48.722;9.362;2022-11-24T13:31:54;5.10;;;3.40;;
46589;SDS011;32313;48.722;9.362;2022-11-24T13:42:22;5.90;;;2.90;;
46589;SDS011;32313;48.722;9.362;2022-11-24T13:44:50;4.10;;;2.97;;
46589;SDS011;32313;48.722;9.362;2022-11-24T13:50:10;3.97;;;2.77;;
46589;SDS011;32313;48.722;9.362;2022-11-24T13:57:46;5.00;;;3.17;;
46589;SDS011;32313;48.722;9.362;2022-11-24T14:02:48;7.83;;;3.77;;
46589;SDS011;32313;48.722;9.362;2022-11-24T14:05:18;5.30;;;2.90;;
46589;SDS011;32313;48.722;9.362;2022-11-24T14:07:49;4.63;;;3.20;;
46589;SDS011;32313;48.722;9.362;2022-11-24T14:10:21;6.20;;;3.33;;
46589;SDS011;32313;48.722;9.362;2022-11-24T14:16:11;4.87;;;3.10;;
46589;SDS011;32313;48.722;9.362;2022-11-24T14:18:46;7.60;;;3.43;;
46589;SDS011;32313;48.722;9.362;2022-11-24T14:23:44;5.70;;;3.10;;
46589;SDS011;32313;48.722;9.362;2022-11-24T14:26:19;6.37;;;3.57;;
46589;SDS011;32313;48.722;9.362;2022-11-24T14:28:47;5.77;;;3.30;;
46589;SDS011;32313;48.722;9.362;2022-11-24T14:31:17;6.73;;;3.40;;
46589;SDS011;32313;48.722;9.362;2022-11-24T14:33:48;5.43;;;3.30;;
46589;SDS011;32313;48.722;9.362;2022-11-24T14:36:15;7.33;;;3.60;;
46589;SDS011;32313;48.722;9.362;2022-11-24T14:38:41;7.47;;;3.33;;
46589;SDS011;32313;48.722;9.362;2022-11-24T14:41:21;6.30;;;3.20;;
46589;SDS011;32313;48.722;9.362;2022-11-24T14:44:02;4.53;;;3.40;;
46589;SDS011;32313;48.722;9.362;2022-11-24T14:46:28;4.80;;;3.37;;
46589;SDS011;32313;48.722;9.362;2022-11-24T14:48:54;6.00;;;3.40;;
46589;SDS011;32313;48.722;9.362;2022-11-24T14:51:20;5.80;;;3.10;;
46589;SDS011;32313;48.722;9.362;2022-11-24T14:53:52;7.13;;;4.37;;
46589;SDS011;32313;48.722;9.362;2022-11-24T14:56:26;11.70;;;4.50;;
46589;SDS011;32313;48.722;9.362;2022-11-24T14:59:19;6.70;;;4.00;;
46589;SDS011;32313;48.722;9.362;2022-11-24T15:01:46;6.27;;;3.53;;
46589;SDS011;32313;48.722;9.362;2022-11-24T15:04:19;6.27;;;4.00;;
46589;SDS011;32313;48.722;9.362;2022-11-24T15:06:48;13.00;;;4.63;;
46589;SDS011;32313;48.722;9.362;2022-11-24T15:09:30;6.77;;;3.97;;
46589;SDS011;32313;48.722;9.362;2022-11-24T15:12:05;6.50;;;4.60;;
46589;SDS011;32313;48.722;9.362;2022-11-24T15:14:48;7.93;;;4.57;;
46589;SDS011;32313;48.722;9.362;2022-11-24T15:17:17;8.77;;;4.17;;
46589;SDS011;32313;48.722;9.362;2022-11-24T15:19:45;7.47;;;3.70;;
46589;SDS011;32313;48.722;9.362;2022-11-24T15:25:00;6.87;;;3.90;;
46589;SDS011;32313;48.722;9.362;2022-11-24T15:27:26;7.20;;;4.07;;
46589;SDS011;32313;48.722;9.362;2022-11-24T15:29:52;5.67;;;3.73;;
46589;SDS011;32313;48.722;9.362;2022-11-24T15:32:17;7.00;;;4.40;;
46589;SDS011;32313;48.722;9.362;2022-11-24T15:34:43;6.50;;;3.97;;
46589;SDS011;32313;48.722;9.362;2022-11-24T15:37:09;4.37;;;3.57;;
46589;SDS011;32313;48.722;9.362;2022-11-24T15:39:35;4.63;;;3.73;;
46589;SDS011;32313;48.722;9.362;2022-11-24T15:42:00;5.90;;;3.90;;
46589;SDS011;32313;48.722;9.362;2022-11-24T15:44:26;5.50;;;3.60;;
46589;SDS011;32313;48.722;9.362;2022-11-24T15:46:53;7.00;;;4.00;;
46589;SDS011;32313;48.722;9.362;2022-11-24T15:49:19;6.93;;;3.93;;
46589;SDS011;32313;48.722;9.362;2022-11-24T15:51:45;9.03;;;4.10;;
46589;SDS011;32313;48.722;9.362;2022-11-24T15:54:15;7.07;;;4.03;;
46589;SDS011;32313;48.722;9.362;2022-11-24T15:56:42;8.40;;;4.43;;
46589;SDS011;32313;48.722;9.362;2022-11-24T15:59:14;7.70;;;4.03;;
46589;SDS011;32313;48.722;9.362;2022-11-24T16:01:40;11.83;;;5.10;;
46589;SDS011;32313;48.722;9.362;2022-11-24T16:04:07;9.40;;;4.83;;
46589;SDS011;32313;48.722;9.362;2022-11-24T16:06:33;7.67;;;4.93;;
46589;SDS011;32313;48.722;9.362;2022-11-24T16:08:59;7.20;;;4.23;;
46589;SDS011;32313;48.722;9.362;2022-11-24T16:11:25;8.57;;;4.43;;
46589;SDS011;32313;48.722;9.362;2022-11-24T16:13:51;8.40;;;4.50;;
46589;SDS011;32313;48.722;9.362;2022-11-24T16:16:17;7.10;;;4.67;;
46589;SDS011;32313;48.722;9.362;2022-11-24T16:18:43;9.63;;;5.13;;
46589;SDS011;32313;48.722;9.362;2022-11-24T16:21:09;8.43;;;5.37;;
46589;SDS011;32313;48.722;9.362;2022-11-24T16:23:36;8.63;;;4.93;;
46589;SDS011;32313;48.722;9.362;2022-11-24T16:26:02;7.23;;;4.60;;
46589;SDS011;32313;48.722;9.362;2022-11-24T16:28:29;8.60;;;4.50;;
46589;SDS011;32313;48.722;9.362;2022-11-24T16:30:55;10.27;;;5.50;;
46589;SDS011;32313;48.722;9.362;2022-11-24T16:33:21;8.23;;;4.77;;
46589;SDS011;32313;48.722;9.362;2022-11-24T16:35:46;8.30;;;5.43;;
46589;SDS011;32313;48.722;9.362;2022-11-24T16:38:14;7.87;;;5.30;;
46589;SDS011;32313;48.722;9.362;2022-11-24T16:40:41;8.57;;;5.97;;
46589;SDS011;32313;48.722;9.362;2022-11-24T16:43:06;9.30;;;5.63;;
46589;SDS011;32313;48.722;9.362;2022-11-24T16:45:32;5.83;;;5.10;;
46589;SDS011;32313;48.722;9.362;2022-11-24T16:47:57;7.20;;;5.57;;
46589;SDS011;32313;48.722;9.362;2022-11-24T16:50:25;11.33;;;6.30;;
46589;SDS011;32313;48.722;9.362;2022-11-24T16:52:50;7.90;;;5.90;;
46589;SDS011;32313;48.722;9.362;2022-11-24T16:55:16;8.10;;;6.53;;
46589;SDS011;32313;48.722;9.362;2022-11-24T16:57:42;8.97;;;6.60;;
46589;SDS011;32313;48.722;9.362;2022-11-24T17:00:08;11.03;;;6.17;;
46589;SDS011;32313;48.722;9.362;2022-11-24T17:02:35;13.00;;;6.17;;
46589;SDS011;32313;48.722;9.362;2022-11-24T17:05:00;9.63;;;7.10;;